Historique des stations

Station météo de Vendôme

Altitude de la station : 108 m







Données météorologiques pour le 06/10/2022
Date
Heure
Températures Humidité Point de rosée Vitesse
du vent
Direction Rafales Windchill Pression Pluviométrie
Cumul
Date
Heure
Températures Humidité Point de rosée Vitesse
du vent
Direction Rafales Windchill Pression Pluviométrie
Cumul
06/10/2022 23:407.8 °C92 %6.6 °C---7.81030 hPa0.0 mm
06/10/2022 23:308.0 °C92 %6.8 °C---8.01030 hPa0.0 mm
06/10/2022 23:108.0 °C91 %6.6 °C---8.01030 hPa0.0 mm
06/10/2022 23:008.1 °C91 %6.7 °C---8.11030 hPa0.0 mm
06/10/2022 22:408.7 °C90 %7.1 °C---8.71030 hPa0.0 mm
06/10/2022 22:308.6 °C90 %7.1 °C---8.61030 hPa0.0 mm
06/10/2022 22:109.2 °C89 %7.4 °C---9.21030 hPa0.0 mm
06/10/2022 22:009.7 °C88 %7.8 °C---9.71030 hPa0.0 mm
06/10/2022 21:409.4 °C89 %7.7 °C---9.41030 hPa0.0 mm
06/10/2022 21:309.7 °C89 %8.0 °C---9.71030 hPa0.0 mm
06/10/2022 21:109.9 °C88 %8.0 °C---9.91030 hPa0.0 mm
06/10/2022 21:0010.4 °C86 %8.2 °C---10.41030 hPa0.0 mm
06/10/2022 20:4010.9 °C84 %8.3 °C---10.91030 hPa0.0 mm
06/10/2022 20:3011.5 °C84 %8.9 °C---11.51030 hPa0.0 mm
06/10/2022 20:1011.8 °C82 %8.9 °C---11.81030 hPa0.0 mm
06/10/2022 20:0012.7 °C79 %9.2 °C---12.71030 hPa0.0 mm
06/10/2022 19:4013.7 °C76 %9.5 °C---13.71030 hPa0.0 mm
06/10/2022 19:3014.5 °C71 %9.3 °C---14.51030 hPa0.0 mm
06/10/2022 19:1015.2 °C68 %9.4 °C---15.21030 hPa0.0 mm
06/10/2022 19:0016.2 °C64 %9.4 °C---16.21030 hPa0.0 mm
06/10/2022 18:4016.7 °C59 %8.6 °C---16.71030 hPa0.0 mm
06/10/2022 18:3016.8 °C61 %9.2 °C-NNE2 km/h16.81030 hPa0.0 mm
06/10/2022 18:1017.3 °C59 %9.2 °C1 km/hNNE3 km/h17.31030 hPa0.0 mm
06/10/2022 18:0017.4 °C58 %9.0 °C1 km/hNNE8 km/h17.41030 hPa0.0 mm
06/10/2022 17:4017.7 °C57 %9.1 °C-NNE6 km/h17.71030 hPa0.0 mm
06/10/2022 17:30-------0 hPa0.0 mm
06/10/2022 17:0017.9 °C59 %9.8 °C-NNE6 km/h17.91031 hPa0.0 mm
06/10/2022 16:4017.9 °C59 %9.8 °C-NNE6 km/h17.91031 hPa0.0 mm
06/10/2022 16:3018.2 °C59 %10.0 °C-NE6 km/h18.21031 hPa0.0 mm
06/10/2022 16:1018.0 °C57 %9.3 °C-NNE6 km/h18.01031 hPa0.0 mm
06/10/2022 16:0018.0 °C56 %9.1 °C-SSO6 km/h18.01031 hPa0.0 mm
06/10/2022 15:4017.9 °C56 %9.0 °C-SSO8 km/h17.91031 hPa0.0 mm
06/10/2022 15:3017.7 °C61 %10.0 °C-NE8 km/h17.71032 hPa0.0 mm
06/10/2022 15:1018.1 °C62 %10.7 °C-NNE5 km/h18.11032 hPa0.0 mm
06/10/2022 15:0017.9 °C66 %11.4 °C-NE5 km/h17.91032 hPa0.0 mm
06/10/2022 14:4017.4 °C65 %10.7 °C-ENE5 km/h17.41032 hPa0.0 mm
06/10/2022 14:3017.4 °C60 %9.5 °C1 km/hNE5 km/h17.41032 hPa0.0 mm
06/10/2022 14:1017.9 °C64 %11.0 °C1 km/hNE10 km/h17.91032 hPa0.0 mm
06/10/2022 14:0017.5 °C65 %10.8 °C-S6 km/h17.51032 hPa0.0 mm
06/10/2022 13:4017.4 °C64 %10.5 °C-NE5 km/h17.41032 hPa0.0 mm
06/10/2022 13:3016.7 °C63 %9.6 °C-O5 km/h16.71033 hPa0.0 mm
06/10/2022 13:1016.7 °C65 %10.1 °C-NNE3 km/h16.71033 hPa0.0 mm
06/10/2022 13:0016.5 °C69 %10.8 °C-5 km/h16.51033 hPa0.0 mm
06/10/2022 12:4015.7 °C71 %10.4 °C-NE5 km/h15.71033 hPa0.0 mm
06/10/2022 12:3015.3 °C74 %10.7 °C-NE3 km/h15.31033 hPa0.0 mm
06/10/2022 12:1014.9 °C76 %10.7 °C-NE6 km/h14.91033 hPa0.0 mm
06/10/2022 12:0014.7 °C80 %11.3 °C-NE8 km/h14.71033 hPa0.0 mm
06/10/2022 11:4014.2 °C83 %11.3 °C-NE6 km/h14.21033 hPa0.0 mm
06/10/2022 11:3013.9 °C85 %11.4 °C-NNE2 km/h13.91033 hPa0.0 mm
06/10/2022 11:1012.8 °C89 %11.0 °C---12.81033 hPa0.0 mm
06/10/2022 11:0011.8 °C93 %10.7 °C-S3 km/h11.81033 hPa0.0 mm
06/10/2022 10:4011.1 °C95 %10.3 °C-S3 km/h11.11033 hPa0.0 mm
06/10/2022 10:3010.3 °C96 %9.7 °C---10.31033 hPa0.0 mm
06/10/2022 10:109.6 °C96 %8.9 °C---9.61033 hPa0.0 mm
06/10/2022 10:009.1 °C97 %8.6 °C-SSE2 km/h9.11032 hPa0.0 mm
06/10/2022 09:408.2 °C97 %7.7 °C---8.21032 hPa0.0 mm
06/10/2022 09:307.4 °C97 %7.0 °C---7.41032 hPa0.0 mm
06/10/2022 09:106.7 °C96 %6.1 °C---6.71032 hPa0.0 mm
06/10/2022 09:007.1 °C96 %6.5 °C---7.11032 hPa0.0 mm
06/10/2022 08:406.7 °C96 %6.1 °C---6.71031 hPa0.0 mm
06/10/2022 08:306.9 °C96 %6.3 °C---6.91031 hPa0.0 mm
06/10/2022 08:107.1 °C96 %6.5 °C---7.11031 hPa0.0 mm
06/10/2022 08:007.1 °C96 %6.5 °C---7.11031 hPa0.0 mm
06/10/2022 07:407.6 °C96 %7.0 °C---7.61031 hPa0.0 mm
06/10/2022 07:307.6 °C96 %7.0 °C---7.61031 hPa0.0 mm
06/10/2022 07:107.7 °C96 %7.1 °C---7.71031 hPa0.0 mm
06/10/2022 07:007.9 °C95 %7.1 °C---7.91031 hPa0.0 mm
06/10/2022 06:408.1 °C95 %7.4 °C---8.11031 hPa0.0 mm
06/10/2022 06:308.2 °C95 %7.5 °C---8.21031 hPa0.0 mm
06/10/2022 06:108.4 °C95 %7.7 °C---8.41031 hPa0.0 mm
06/10/2022 06:008.8 °C96 %8.2 °C---8.81031 hPa0.0 mm
06/10/2022 05:309.1 °C95 %8.3 °C---9.11030 hPa0.0 mm
06/10/2022 05:109.6 °C95 %8.8 °C---9.61030 hPa0.0 mm
06/10/2022 05:009.6 °C95 %8.8 °C---9.61030 hPa0.0 mm
06/10/2022 04:409.6 °C95 %8.8 °C---9.61030 hPa0.0 mm
06/10/2022 04:309.7 °C95 %8.9 °C---9.71030 hPa0.0 mm
06/10/2022 04:109.8 °C94 %8.9 °C---9.81030 hPa0.0 mm
06/10/2022 04:0010.3 °C94 %9.4 °C---10.31030 hPa0.0 mm
06/10/2022 03:4010.6 °C94 %9.6 °C---10.61030 hPa0.0 mm
06/10/2022 03:3010.8 °C93 %9.7 °C---10.81030 hPa0.0 mm
06/10/2022 03:1011.2 °C92 %10.0 °C---11.21030 hPa0.0 mm
06/10/2022 03:0011.8 °C91 %10.4 °C---11.81029 hPa0.0 mm
06/10/2022 02:4012.4 °C90 %10.8 °C-ENE2 km/h12.41029 hPa0.0 mm
06/10/2022 02:3012.8 °C89 %11.0 °C-ENE5 km/h12.81029 hPa0.0 mm
06/10/2022 02:1013.3 °C89 %11.5 °C-SSO2 km/h13.31029 hPa0.0 mm
06/10/2022 02:0013.5 °C91 %12.1 °C-ENE2 km/h13.51029 hPa-
06/10/2022 01:4013.7 °C91 %12.2 °C-E2 km/h13.71028 hPa0.4 mm
06/10/2022 01:3013.7 °C91 %12.3 °C---13.71028 hPa0.4 mm
06/10/2022 01:1013.8 °C92 %12.6 °C-OSO3 km/h13.81028 hPa0.4 mm
06/10/2022 01:0013.9 °C92 %12.7 °C-OSO2 km/h13.91028 hPa0.4 mm
06/10/2022 00:4014.1 °C92 %12.8 °C-SSO2 km/h14.11028 hPa0.4 mm
06/10/2022 00:3014.1 °C92 %12.8 °C-SO3 km/h14.11027 hPa0.4 mm
06/10/2022 00:1014.1 °C91 %12.7 °C-SO2 km/h14.11027 hPa0.4 mm
06/10/2022 00:0014.1 °C91 %12.6 °C---14.11027 hPa0.4 mm


Minima :

Température : 6.7 °C
Humidité : 56 %
Point de rosée : 6.1 °C
Vent moyen : 1 km/h
Windchill : 6.7
Pression atm. : 0 hPa
Maxima :

Température : 18.2 °C
Humidité : 97 %
Point de rosée : 12.8 °C
Vent moyen : 1 km/h
Windchill : 18.2
Pression atm. : 1033 hPa
Rafales max : 10 km/h
Cumul de pluie sur 24H : 0.4 mm

Vendôme est une commune du département Loir-et-Cher (41).
La station météorologique du réseau de l'association la plus proche de Vendôme n'a pas encore été identifiée.



Icône Facebook Association Météo Centre Icône Twitter Association Météo Centre Icône Chaîne Youtube Association Météo Centre Icône contact Association Météo Centre Icône Insta Association Météo Centre